createdAt,value
2019-03-21T00:01:43.502Z,91.30
2019-03-21T00:04:12.775Z,91.30
2019-03-21T00:06:38.837Z,91.30
2019-03-21T00:09:07.090Z,91.40
2019-03-21T00:11:54.466Z,91.30
2019-03-21T00:14:27.320Z,91.40
2019-03-21T00:16:53.376Z,91.50
2019-03-21T00:19:19.459Z,91.50
2019-03-21T00:21:45.515Z,91.50
2019-03-21T00:24:11.564Z,91.60
2019-03-21T00:26:37.619Z,91.70
2019-03-21T00:29:03.672Z,91.80
2019-03-21T00:31:29.859Z,92.40
2019-03-21T00:33:55.908Z,92.50
2019-03-21T00:36:22.015Z,92.60
2019-03-21T00:38:48.067Z,92.60
2019-03-21T00:41:14.111Z,92.70
2019-03-21T00:43:40.181Z,92.70
2019-03-21T00:46:06.267Z,92.70
2019-03-21T00:48:32.316Z,92.70
2019-03-21T00:50:58.375Z,92.80
2019-03-21T00:53:24.439Z,92.80
2019-03-21T00:55:56.056Z,92.80
2019-03-21T00:58:22.165Z,92.40
2019-03-21T01:01:00.835Z,92.40
2019-03-21T01:03:26.932Z,92.40
2019-03-21T01:05:52.987Z,92.40
2019-03-21T01:08:19.143Z,92.40
2019-03-21T01:10:45.920Z,92.40
2019-03-21T01:13:12.004Z,92.30
2019-03-21T01:15:38.152Z,92.30
2019-03-21T01:18:04.328Z,92.20
2019-03-21T01:20:30.403Z,92.20
2019-03-21T01:22:56.587Z,92.20
2019-03-21T01:25:32.427Z,92.20
2019-03-21T01:27:58.491Z,92.20
2019-03-21T01:30:24.567Z,92.30
2019-03-21T01:32:50.719Z,92.30
2019-03-21T01:35:16.788Z,92.20
2019-03-21T01:37:42.883Z,92.20
2019-03-21T01:40:15.481Z,92.60
2019-03-21T01:42:41.563Z,92.20
2019-03-21T01:45:14.526Z,92.20
2019-03-21T01:47:40.660Z,92.10
2019-03-21T01:50:10.620Z,92.20
2019-03-21T01:52:36.675Z,92.10
2019-03-21T01:55:06.052Z,92.10
2019-03-21T01:57:32.103Z,92.10
2019-03-21T01:59:58.163Z,92.10
2019-03-21T02:02:24.216Z,92.10
2019-03-21T02:04:50.308Z,92.00
2019-03-21T02:07:16.355Z,92.10
2019-03-21T02:09:42.411Z,92.10
2019-03-21T02:12:08.468Z,92.10
2019-03-21T02:14:34.515Z,92.00
2019-03-21T02:17:00.591Z,92.00
2019-03-21T02:19:26.670Z,92.00
2019-03-21T02:21:52.720Z,92.10
2019-03-21T02:24:18.808Z,92.10
2019-03-21T02:26:44.925Z,92.10
2019-03-21T02:29:11.015Z,92.10
2019-03-21T02:31:37.072Z,92.00
2019-03-21T02:34:03.530Z,92.00
2019-03-21T02:36:29.579Z,91.90
2019-03-21T02:38:55.640Z,91.90
2019-03-21T02:41:25.210Z,92.00
2019-03-21T02:43:49.684Z,92.00
2019-03-21T02:46:15.759Z,91.90
2019-03-21T02:48:41.929Z,91.90
2019-03-21T02:51:07.984Z,91.80
2019-03-21T02:53:34.032Z,91.80
2019-03-21T02:56:00.393Z,91.80
2019-03-21T02:58:26.451Z,91.80
2019-03-21T03:00:52.535Z,91.80
2019-03-21T03:03:19.181Z,91.80
2019-03-21T03:05:45.260Z,91.80
2019-03-21T03:08:11.312Z,91.70
2019-03-21T03:10:43.839Z,91.70
2019-03-21T03:13:10.131Z,91.70
2019-03-21T03:15:37.697Z,91.70
2019-03-21T03:18:05.459Z,91.70
2019-03-21T03:20:31.551Z,91.70
2019-03-21T03:22:57.716Z,91.60
2019-03-21T03:25:23.916Z,91.60
2019-03-21T03:28:02.366Z,91.70
2019-03-21T03:30:28.435Z,91.70
2019-03-21T03:32:54.564Z,91.70
2019-03-21T03:35:20.770Z,91.60
2019-03-21T03:37:46.932Z,91.60
2019-03-21T03:40:28.629Z,91.60
2019-03-21T03:42:54.725Z,91.60
2019-03-21T03:45:36.768Z,91.50
2019-03-21T03:47:51.867Z,91.60
2019-03-21T03:50:18.033Z,91.60
2019-03-21T03:52:44.199Z,91.60
2019-03-21T03:55:16.283Z,91.60
2019-03-21T03:57:42.360Z,91.50
2019-03-21T04:00:11.925Z,91.60
2019-03-21T04:02:38.080Z,91.50
2019-03-21T04:05:07.836Z,91.50
2019-03-21T04:07:33.915Z,91.40
2019-03-21T04:10:00.067Z,91.50
2019-03-21T04:12:26.227Z,91.50
2019-03-21T04:14:52.379Z,91.50
2019-03-21T04:17:18.451Z,91.40
2019-03-21T04:19:44.505Z,91.40
2019-03-21T04:22:10.567Z,91.30
2019-03-21T04:24:36.620Z,91.30
2019-03-21T04:27:02.699Z,91.30
2019-03-21T04:29:29.056Z,91.30
2019-03-21T04:31:55.113Z,91.30
2019-03-21T04:34:21.216Z,91.30
2019-03-21T04:36:47.383Z,91.30
2019-03-21T04:39:13.510Z,91.50
2019-03-21T04:41:42.064Z,91.30
2019-03-21T04:44:08.111Z,91.30
2019-03-21T04:46:34.187Z,91.20
2019-03-21T04:49:00.240Z,91.20
2019-03-21T04:51:26.319Z,91.10
2019-03-21T04:53:53.495Z,91.40
2019-03-21T04:56:19.904Z,91.10
2019-03-21T04:58:46.215Z,91.10
2019-03-21T05:01:12.263Z,91.00
2019-03-21T05:03:38.336Z,91.00
2019-03-21T05:06:04.388Z,90.70
2019-03-21T05:08:30.464Z,91.00
2019-03-21T05:10:56.607Z,91.00
2019-03-21T05:13:22.669Z,90.80
2019-03-21T05:15:49.935Z,90.70
2019-03-21T05:18:28.231Z,90.70
2019-03-21T05:20:54.327Z,90.40
2019-03-21T05:23:20.507Z,89.70
2019-03-21T05:25:46.554Z,90.10
2019-03-21T05:28:12.641Z,89.80
2019-03-21T05:30:45.391Z,89.70
2019-03-21T05:33:11.440Z,89.60
2019-03-21T05:35:37.483Z,89.40
2019-03-21T05:38:03.549Z,89.50
2019-03-21T05:40:29.605Z,89.30
2019-03-21T05:43:02.503Z,90.40
2019-03-21T05:45:28.561Z,90.20
2019-03-21T05:47:54.655Z,89.50
2019-03-21T05:50:20.707Z,89.90
2019-03-21T05:52:46.770Z,89.20
2019-03-21T05:55:13.215Z,88.40
2019-03-21T05:57:40.092Z,87.90
2019-03-21T06:00:26.811Z,87.50
2019-03-21T06:02:52.872Z,87.20
2019-03-21T06:05:18.935Z,87.20
2019-03-21T06:08:03.939Z,87.20
2019-03-21T06:10:29.995Z,87.00
2019-03-21T06:12:56.056Z,87.40
2019-03-21T06:15:31.279Z,87.20
2019-03-21T06:18:13.147Z,86.80
2019-03-21T06:20:43.119Z,86.50
2019-03-21T06:23:30.755Z,86.60
2019-03-21T06:26:26.894Z,86.30
2019-03-21T06:28:52.945Z,86.40
2019-03-21T06:31:18.999Z,85.90
2019-03-21T06:33:45.052Z,86.30
2019-03-21T06:36:11.118Z,85.60
2019-03-21T06:38:37.174Z,85.70
2019-03-21T06:41:04.157Z,85.40
2019-03-21T06:43:30.331Z,84.10
2019-03-21T06:45:56.411Z,83.70
2019-03-21T06:48:22.665Z,84.10
2019-03-21T06:50:48.776Z,84.20
2019-03-21T06:53:14.851Z,84.10
2019-03-21T06:55:41.149Z,84.70
2019-03-21T06:58:07.285Z,84.80
2019-03-21T07:00:33.368Z,85.20
2019-03-21T07:02:59.423Z,85.50
2019-03-21T07:05:26.772Z,85.60
2019-03-21T07:07:53.121Z,85.70
2019-03-21T07:10:19.252Z,86.00
2019-03-21T07:12:45.347Z,86.00
2019-03-21T07:15:11.600Z,86.10
2019-03-21T07:17:37.647Z,86.00
2019-03-21T07:20:09.566Z,86.00
2019-03-21T07:22:35.615Z,85.90
2019-03-21T07:25:02.737Z,85.80
2019-03-21T07:27:28.791Z,85.20
2019-03-21T07:29:54.856Z,85.20
2019-03-21T07:32:20.956Z,85.20
2019-03-21T07:34:47.060Z,85.40
2019-03-21T07:37:13.118Z,85.30
2019-03-21T07:39:39.271Z,85.60
2019-03-21T07:42:05.325Z,85.50
2019-03-21T07:44:31.431Z,85.60
2019-03-21T07:46:57.590Z,85.30
2019-03-21T07:49:23.643Z,84.70
2019-03-21T07:51:49.717Z,84.70
2019-03-21T07:54:15.771Z,84.70
2019-03-21T07:56:41.824Z,84.80
2019-03-21T07:59:07.897Z,84.40
2019-03-21T08:01:34.073Z,84.10
2019-03-21T08:04:02.727Z,84.00
2019-03-21T08:06:28.082Z,84.10
2019-03-21T08:08:54.137Z,84.00
2019-03-21T08:11:20.185Z,84.30
2019-03-21T08:13:46.253Z,83.60
2019-03-21T08:16:12.332Z,83.70
2019-03-21T08:18:38.452Z,83.20
2019-03-21T08:21:04.512Z,83.10
2019-03-21T08:23:30.564Z,83.30
2019-03-21T08:25:58.660Z,83.10
2019-03-21T08:28:24.872Z,82.70
2019-03-21T08:31:03.892Z,82.20
2019-03-21T08:33:29.999Z,82.10
2019-03-21T08:35:56.048Z,82.10
2019-03-21T08:38:22.191Z,81.90
2019-03-21T08:40:48.255Z,81.90
2019-03-21T08:43:14.323Z,81.20
2019-03-21T08:45:40.399Z,81.90
2019-03-21T08:48:06.452Z,84.10
2019-03-21T08:50:32.509Z,82.00
2019-03-21T08:52:58.563Z,82.00
2019-03-21T08:55:24.627Z,81.80
2019-03-21T08:57:50.712Z,82.10
2019-03-21T09:00:16.800Z,82.40
2019-03-21T09:02:42.915Z,82.20
2019-03-21T09:05:09.173Z,82.30
2019-03-21T09:07:35.231Z,82.40
2019-03-21T09:10:03.027Z,82.40
2019-03-21T09:12:29.161Z,81.70
2019-03-21T09:14:55.225Z,82.10
2019-03-21T09:17:21.540Z,81.90
2019-03-21T09:19:47.615Z,82.20
2019-03-21T09:22:15.945Z,82.00
2019-03-21T09:24:41.622Z,81.60
2019-03-21T09:27:07.695Z,82.00
2019-03-21T09:29:33.767Z,82.40
2019-03-21T09:31:59.930Z,82.70
2019-03-21T09:34:25.989Z,82.70
2019-03-21T09:36:52.048Z,82.90
2019-03-21T09:39:18.117Z,82.90
2019-03-21T09:41:44.171Z,83.00
2019-03-21T09:44:10.250Z,82.90
2019-03-21T09:46:36.319Z,82.80
2019-03-21T09:49:02.385Z,82.90
2019-03-21T09:51:31.170Z,83.00
2019-03-21T09:53:56.503Z,83.20
2019-03-21T09:56:24.122Z,83.40
2019-03-21T09:58:50.315Z,84.20
2019-03-21T10:01:16.419Z,83.70
2019-03-21T10:03:42.484Z,83.30
2019-03-21T10:06:08.537Z,83.00
2019-03-21T10:08:34.596Z,82.60
2019-03-21T10:11:00.666Z,82.70
2019-03-21T10:13:26.743Z,82.90
2019-03-21T10:15:52.795Z,83.00
2019-03-21T10:18:18.843Z,82.30
2019-03-21T10:20:44.917Z,82.30
2019-03-21T10:23:10.993Z,81.90
2019-03-21T10:25:37.056Z,81.50
2019-03-21T10:28:03.332Z,81.10
2019-03-21T10:30:37.467Z,81.10
2019-03-21T10:33:04.915Z,81.00
2019-03-21T10:35:32.625Z,80.50
2019-03-21T10:37:58.931Z,79.60
2019-03-21T10:40:25.024Z,79.90
2019-03-21T10:42:51.112Z,79.90
2019-03-21T10:45:17.167Z,80.10
2019-03-21T10:47:43.223Z,79.80
2019-03-21T10:50:12.779Z,79.50
2019-03-21T10:52:38.836Z,79.20
2019-03-21T10:55:05.289Z,78.00
2019-03-21T10:57:31.364Z,78.70
2019-03-21T10:59:57.419Z,78.50
2019-03-21T11:02:23.499Z,78.50
2019-03-21T11:04:49.600Z,78.20
2019-03-21T11:07:15.432Z,78.30
2019-03-21T11:09:41.495Z,78.00
2019-03-21T11:12:07.576Z,77.80
2019-03-21T11:14:33.688Z,76.40
2019-03-21T11:16:59.750Z,76.00
2019-03-21T11:19:25.927Z,76.20
2019-03-21T11:21:52.016Z,76.20
2019-03-21T11:24:18.067Z,75.50
2019-03-21T11:26:44.220Z,74.80
2019-03-21T11:29:10.279Z,75.40
2019-03-21T11:31:36.428Z,74.50
2019-03-21T11:34:02.683Z,73.30
2019-03-21T11:36:37.686Z,72.40
2019-03-21T11:38:56.729Z,71.70
2019-03-21T11:41:22.783Z,72.30
2019-03-21T11:43:48.831Z,72.60
2019-03-21T11:46:14.906Z,72.00
2019-03-21T11:48:41.075Z,72.30
2019-03-21T11:51:07.143Z,71.90
2019-03-21T11:53:33.284Z,71.50
2019-03-21T11:55:59.366Z,71.50
2019-03-21T11:58:25.543Z,70.60
2019-03-21T12:00:51.608Z,70.10
2019-03-21T12:03:17.677Z,69.20
2019-03-21T12:05:43.787Z,69.60
2019-03-21T12:08:09.955Z,69.40
2019-03-21T12:10:36.015Z,69.60
2019-03-21T12:13:02.088Z,69.30
2019-03-21T12:15:28.142Z,69.30
2019-03-21T12:17:54.216Z,68.80
2019-03-21T12:20:28.165Z,67.90
2019-03-21T12:22:54.348Z,68.80
2019-03-21T12:25:20.461Z,68.10
2019-03-21T12:27:46.515Z,65.80
2019-03-21T12:30:19.388Z,65.80
2019-03-21T12:32:45.441Z,65.60
2019-03-21T12:35:11.619Z,64.80
2019-03-21T12:37:37.671Z,65.50
2019-03-21T12:40:06.544Z,64.30
2019-03-21T12:42:32.695Z,64.40
2019-03-21T12:44:58.756Z,63.90
2019-03-21T12:47:31.077Z,64.40
2019-03-21T12:49:52.876Z,65.10
2019-03-21T12:52:19.108Z,64.80
2019-03-21T12:54:45.303Z,64.00
2019-03-21T12:57:11.456Z,64.50
2019-03-21T12:59:37.508Z,64.30
2019-03-21T13:02:03.565Z,64.80
2019-03-21T13:04:29.617Z,64.60
2019-03-21T13:06:55.675Z,65.10
2019-03-21T13:09:22.586Z,63.60
2019-03-21T13:11:48.656Z,63.90
2019-03-21T13:14:14.799Z,64.30
2019-03-21T13:16:40.993Z,64.10
2019-03-21T13:19:07.143Z,64.40
2019-03-21T13:21:33.227Z,63.90
2019-03-21T13:23:59.397Z,63.70
2019-03-21T13:26:25.603Z,63.60
2019-03-21T13:28:51.658Z,63.50
2019-03-21T13:31:17.719Z,62.90
2019-03-21T13:33:43.827Z,62.90
2019-03-21T13:36:10.155Z,62.50
2019-03-21T13:38:36.208Z,62.00
2019-03-21T13:41:02.296Z,62.30
2019-03-21T13:43:28.361Z,62.00
2019-03-21T13:45:54.422Z,61.80
2019-03-21T13:48:20.484Z,62.30
2019-03-21T13:50:46.537Z,62.50
2019-03-21T13:53:18.520Z,62.40
2019-03-21T13:55:40.560Z,63.20
2019-03-21T13:58:06.632Z,62.90
2019-03-21T14:00:32.699Z,63.10
2019-03-21T14:02:58.855Z,63.40
2019-03-21T14:05:25.014Z,64.10
2019-03-21T14:07:51.214Z,62.90
2019-03-21T14:10:17.463Z,63.30
2019-03-21T14:12:43.560Z,63.20
2019-03-21T14:15:12.672Z,63.50
2019-03-21T14:17:38.765Z,63.80
2019-03-21T14:20:07.644Z,63.60
2019-03-21T14:22:33.807Z,63.30
2019-03-21T14:24:59.905Z,63.70
2019-03-21T14:27:26.172Z,63.60
2019-03-21T14:30:00.794Z,63.40
2019-03-21T14:32:20.343Z,63.70
2019-03-21T14:34:46.408Z,63.70
2019-03-21T14:37:12.637Z,63.80
2019-03-21T14:39:38.757Z,62.80
2019-03-21T14:42:04.967Z,62.90
2019-03-21T14:44:36.508Z,63.00
2019-03-21T14:47:02.617Z,62.90
2019-03-21T14:49:28.788Z,63.70
2019-03-21T14:51:54.840Z,63.60
2019-03-21T14:54:20.985Z,63.60
2019-03-21T14:56:47.035Z,63.70
2019-03-21T14:59:13.144Z,64.00
2019-03-21T15:01:40.796Z,64.00
2019-03-21T15:04:07.116Z,64.30
2019-03-21T15:06:33.219Z,64.20
2019-03-21T15:08:59.406Z,64.70
2019-03-21T15:11:25.537Z,65.40
2019-03-21T15:13:51.669Z,66.40
2019-03-21T15:16:17.867Z,67.00
2019-03-21T15:18:44.023Z,66.80
2019-03-21T15:21:10.108Z,66.70
2019-03-21T15:23:40.967Z,67.00
2019-03-21T15:26:04.634Z,67.00
2019-03-21T15:28:30.712Z,66.30
2019-03-21T15:30:56.760Z,65.90
2019-03-21T15:33:22.815Z,66.70
2019-03-21T15:35:48.875Z,66.70
2019-03-21T15:38:15.016Z,66.50
2019-03-21T15:40:41.076Z,66.70
2019-03-21T15:43:07.136Z,66.70
2019-03-21T15:45:33.189Z,67.40
2019-03-21T15:47:59.251Z,68.10
2019-03-21T15:50:33.496Z,67.30
2019-03-21T15:52:59.868Z,67.70
2019-03-21T15:55:26.147Z,67.80
2019-03-21T15:57:52.235Z,67.20
2019-03-21T16:00:31.211Z,67.80
2019-03-21T16:02:57.500Z,67.40
2019-03-21T16:05:23.552Z,68.10
2019-03-21T16:07:49.619Z,68.20
2019-03-21T16:10:15.717Z,68.20
2019-03-21T16:12:41.763Z,68.40
2019-03-21T16:15:08.067Z,68.30
2019-03-21T16:17:34.959Z,68.60
2019-03-21T16:20:01.136Z,68.90
2019-03-21T16:22:27.339Z,69.30
2019-03-21T16:24:53.408Z,69.80
2019-03-21T16:27:19.476Z,69.80
2019-03-21T16:29:45.532Z,70.00
2019-03-21T16:32:11.599Z,70.10
2019-03-21T16:34:37.657Z,70.00
2019-03-21T16:37:03.755Z,70.10
2019-03-21T16:39:29.903Z,69.50
2019-03-21T16:41:55.979Z,70.20
2019-03-21T16:44:22.052Z,70.50
2019-03-21T16:46:48.098Z,70.90
2019-03-21T16:49:14.175Z,71.30
2019-03-21T16:51:40.236Z,71.30
2019-03-21T16:54:16.625Z,71.10
2019-03-21T16:56:34.259Z,72.00
2019-03-21T16:59:00.311Z,72.20
2019-03-21T17:01:26.391Z,72.50
2019-03-21T17:03:52.439Z,72.50
2019-03-21T17:06:18.578Z,72.90
2019-03-21T17:08:44.725Z,73.40
2019-03-21T17:11:10.841Z,73.60
2019-03-21T17:13:37.041Z,73.80
2019-03-21T17:16:05.587Z,73.90
2019-03-21T17:18:31.197Z,74.10
2019-03-21T17:20:57.346Z,74.40
2019-03-21T17:23:23.500Z,74.50
2019-03-21T17:25:49.643Z,74.70
2019-03-21T17:28:15.705Z,74.70
2019-03-21T17:30:41.760Z,74.80
2019-03-21T17:33:07.839Z,75.10
2019-03-21T17:35:35.391Z,75.30
2019-03-21T17:38:01.519Z,75.60
2019-03-21T17:40:27.579Z,75.50
2019-03-21T17:42:53.667Z,75.70
2019-03-21T17:45:19.719Z,75.80
2019-03-21T17:47:45.884Z,75.80
2019-03-21T17:50:13.887Z,76.00
2019-03-21T17:52:39.967Z,76.20
2019-03-21T17:55:06.415Z,76.40
2019-03-21T17:57:34.736Z,76.30
2019-03-21T18:00:00.505Z,77.40
2019-03-21T18:02:26.616Z,76.70
2019-03-21T18:04:52.668Z,76.80
2019-03-21T18:07:18.742Z,76.90
2019-03-21T18:09:44.825Z,77.20
2019-03-21T18:12:10.971Z,77.30
2019-03-21T18:14:37.060Z,77.50
2019-03-21T18:17:03.131Z,77.30
2019-03-21T18:19:29.272Z,77.50
2019-03-21T18:21:55.339Z,77.60
2019-03-21T18:24:21.392Z,77.20
2019-03-21T18:26:47.495Z,77.90
2019-03-21T18:29:13.579Z,78.00
2019-03-21T18:31:39.743Z,78.10
2019-03-21T18:34:05.852Z,78.30
2019-03-21T18:36:31.936Z,78.30
2019-03-21T18:38:59.947Z,78.40
2019-03-21T18:41:26.072Z,79.00
2019-03-21T18:43:52.151Z,78.50
2019-03-21T18:46:18.212Z,78.00
2019-03-21T18:48:44.267Z,78.50
2019-03-21T18:51:10.379Z,78.60
2019-03-21T18:53:36.466Z,78.50
2019-03-21T18:56:02.746Z,78.60
2019-03-21T18:58:28.832Z,78.60
2019-03-21T19:00:54.895Z,78.60
2019-03-21T19:03:20.947Z,78.70
2019-03-21T19:05:47.006Z,78.70
2019-03-21T19:08:13.062Z,78.80
2019-03-21T19:10:39.114Z,79.00
2019-03-21T19:13:05.287Z,78.90
2019-03-21T19:15:31.443Z,79.00
2019-03-21T19:17:57.571Z,79.00
2019-03-21T19:20:23.631Z,79.00
2019-03-21T19:22:49.683Z,79.00
2019-03-21T19:25:18.785Z,78.90
2019-03-21T19:27:45.476Z,78.90
2019-03-21T19:30:14.745Z,79.20
2019-03-21T19:32:40.817Z,78.90
2019-03-21T19:35:07.164Z,79.10
2019-03-21T19:37:33.719Z,79.20
2019-03-21T19:39:59.892Z,79.10
2019-03-21T19:42:25.946Z,79.20
2019-03-21T19:44:52.008Z,78.80
2019-03-21T19:47:24.309Z,79.30
2019-03-21T19:49:46.049Z,79.50
2019-03-21T19:52:13.608Z,79.50
2019-03-21T19:54:39.686Z,79.50
2019-03-21T19:57:05.864Z,79.70
2019-03-21T19:59:31.915Z,79.90
2019-03-21T20:01:58.047Z,80.20
2019-03-21T20:04:24.103Z,80.30
2019-03-21T20:06:50.307Z,80.40
2019-03-21T20:09:16.425Z,80.50
2019-03-21T20:11:42.582Z,80.70
2019-03-21T20:14:08.744Z,80.20
2019-03-21T20:16:34.796Z,80.80
2019-03-21T20:19:00.890Z,80.90
2019-03-21T20:21:27.014Z,80.90
2019-03-21T20:23:53.091Z,81.00
2019-03-21T20:26:19.231Z,81.10
2019-03-21T20:28:45.308Z,81.10
2019-03-21T20:31:11.359Z,81.20
2019-03-21T20:33:37.408Z,81.40
2019-03-21T20:36:03.490Z,80.70
2019-03-21T20:38:29.646Z,81.40
2019-03-21T20:40:55.838Z,81.40
2019-03-21T20:43:21.901Z,81.40
2019-03-21T20:45:48.004Z,81.50
2019-03-21T20:48:14.185Z,81.50
2019-03-21T20:50:40.251Z,81.70
2019-03-21T20:53:06.416Z,81.80
2019-03-21T20:55:32.479Z,81.70
2019-03-21T20:57:58.538Z,81.80
2019-03-21T21:00:24.904Z,81.80
2019-03-21T21:02:52.672Z,82.00
2019-03-21T21:05:18.720Z,82.10
2019-03-21T21:07:44.791Z,82.20
2019-03-21T21:10:12.657Z,82.30
2019-03-21T21:12:38.914Z,82.40
2019-03-21T21:15:06.580Z,82.40
2019-03-21T21:17:32.707Z,82.30
2019-03-21T21:19:58.774Z,82.20
2019-03-21T21:22:24.835Z,82.40
2019-03-21T21:24:50.937Z,82.50
2019-03-21T21:27:17.113Z,82.30
2019-03-21T21:29:43.311Z,82.30
2019-03-21T21:32:09.445Z,82.40
2019-03-21T21:34:35.563Z,82.60
2019-03-21T21:37:01.704Z,82.70
2019-03-21T21:39:27.771Z,82.90
2019-03-21T21:41:53.835Z,83.20
2019-03-21T21:44:20.009Z,83.20
2019-03-21T21:46:46.184Z,83.30
2019-03-21T21:49:13.207Z,83.40
2019-03-21T21:51:39.435Z,83.40
2019-03-21T21:54:05.488Z,83.70
2019-03-21T21:56:31.636Z,83.70
2019-03-21T21:58:57.794Z,83.90
2019-03-21T22:01:23.943Z,84.00
2019-03-21T22:03:49.994Z,84.10
2019-03-21T22:06:16.075Z,84.20
2019-03-21T22:08:42.125Z,84.30
2019-03-21T22:11:08.185Z,84.40
2019-03-21T22:13:34.301Z,84.20
2019-03-21T22:16:00.339Z,84.40
2019-03-21T22:18:26.417Z,84.40
2019-03-21T22:20:52.489Z,84.50
2019-03-21T22:23:18.663Z,84.70
2019-03-21T22:25:44.712Z,84.70
2019-03-21T22:28:10.791Z,84.90
2019-03-21T22:30:36.990Z,85.00
2019-03-21T22:33:03.153Z,85.30
2019-03-21T22:35:29.219Z,85.40
2019-03-21T22:37:55.269Z,85.40
2019-03-21T22:40:21.327Z,85.60
2019-03-21T22:42:47.403Z,85.70
2019-03-21T22:45:15.743Z,86.00
2019-03-21T22:47:41.904Z,86.10
2019-03-21T22:50:15.225Z,86.30
2019-03-21T22:52:41.495Z,87.00
2019-03-21T22:55:08.152Z,86.90
2019-03-21T22:57:34.360Z,86.40
2019-03-21T23:00:00.609Z,86.80
2019-03-21T23:02:26.775Z,87.00
2019-03-21T23:04:52.831Z,86.60
2019-03-21T23:07:18.884Z,87.30
2019-03-21T23:09:44.985Z,87.30
2019-03-21T23:12:11.037Z,87.30
2019-03-21T23:14:37.092Z,87.30
2019-03-21T23:17:03.189Z,87.90
2019-03-21T23:19:29.279Z,87.10
2019-03-21T23:21:55.388Z,87.20
2019-03-21T23:24:21.436Z,87.20
2019-03-21T23:26:52.737Z,87.40
2019-03-21T23:29:15.996Z,87.50
2019-03-21T23:31:42.362Z,87.60
2019-03-21T23:34:08.536Z,87.70
2019-03-21T23:36:34.612Z,87.60
2019-03-21T23:39:00.667Z,87.80
2019-03-21T23:41:26.755Z,87.80
2019-03-21T23:43:52.836Z,88.10
2019-03-21T23:46:18.908Z,88.10
2019-03-21T23:48:44.963Z,88.10
2019-03-21T23:51:11.031Z,87.90
2019-03-21T23:53:37.107Z,87.70
2019-03-21T23:56:03.159Z,87.50
2019-03-21T23:58:29.230Z,87.10
